Time;durP1;ratioP1;P1;durP2;ratioP2;P2;SDS_P1;SDS_P2;PMS_P1;PMS_P2;Temp;Humidity;BMP_temperature;BMP_pressure;BME280_temperature;BME280_humidity;BME280_pressure;Samples;Min_cycle;Max_cycle;Signal;HPM_P1;HPM_P2
2023/05/20 00:01:32;;;;;;;11.50;5.47;;;11.70;99.90;;;;;;5043636;28;20039;-62
2023/05/20 00:03:57;;;;;;;14.75;6.32;;;11.70;99.90;;;;;;5047957;28;20041;-62
2023/05/20 00:06:23;;;;;;;11.70;5.53;;;11.80;99.90;;;;;;5048616;28;20505;-62
2023/05/20 00:08:48;;;;;;;12.85;5.50;;;11.70;99.90;;;;;;5048889;28;20474;-63
2023/05/20 00:11:14;;;;;;;11.52;5.60;;;11.60;99.90;;;;;;5050715;28;20502;-63
2023/05/20 00:13:39;;;;;;;10.90;5.82;;;11.60;99.90;;;;;;5051386;28;20048;-62
2023/05/20 00:16:05;;;;;;;11.98;5.70;;;11.60;99.90;;;;;;5049377;28;20121;-62
2023/05/20 00:18:34;;;;;;;10.40;5.90;;;11.60;99.90;;;;;;5044217;28;20115;-63
2023/05/20 00:20:59;;;;;;;12.98;5.15;;;11.60;99.90;;;;;;5048479;28;20120;-62
2023/05/20 00:23:25;;;;;;;12.05;5.70;;;11.50;99.90;;;;;;5050574;28;20072;-62
2023/05/20 00:25:50;;;;;;;11.88;6.03;;;11.50;99.90;;;;;;5050118;28;20033;-62
2023/05/20 00:28:16;;;;;;;13.23;5.63;;;11.50;99.90;;;;;;5051669;28;20044;-62
2023/05/20 00:30:42;;;;;;;13.63;5.78;;;11.50;99.90;;;;;;5050772;28;20025;-62
2023/05/20 00:33:08;;;;;;;16.13;5.72;;;11.50;99.90;;;;;;5055164;28;20036;-62
2023/05/20 00:35:33;;;;;;;10.38;5.75;;;11.50;99.90;;;;;;5052924;28;20045;-63
2023/05/20 00:37:59;;;;;;;15.07;6.03;;;11.50;99.90;;;;;;5055288;28;20129;-62
2023/05/20 00:40:24;;;;;;;13.23;5.28;;;11.50;99.90;;;;;;5049582;28;20036;-62
2023/05/20 00:42:50;;;;;;;11.13;5.60;;;11.50;99.90;;;;;;5053125;28;20461;-62
2023/05/20 00:45:16;;;;;;;13.23;5.85;;;11.60;99.90;;;;;;5055161;28;20128;-62
2023/05/20 00:47:42;;;;;;;10.13;5.75;;;11.60;99.90;;;;;;5055431;28;20037;-62
2023/05/20 00:50:10;;;;;;;7.93;5.35;;;11.60;99.90;;;;;;5051419;28;20503;-62
2023/05/20 00:52:36;;;;;;;11.27;5.93;;;11.60;99.90;;;;;;5053770;28;20410;-62
2023/05/20 00:55:02;;;;;;;11.77;5.80;;;11.60;99.90;;;;;;5051975;28;20136;-62
2023/05/20 00:57:28;;;;;;;9.40;5.45;;;11.60;99.90;;;;;;5049974;28;20047;-62
2023/05/20 00:59:54;;;;;;;10.52;6.18;;;11.60;99.90;;;;;;5054820;28;20037;-62
2023/05/20 01:02:20;;;;;;;10.45;5.53;;;11.60;99.90;;;;;;5048059;28;20038;-62
2023/05/20 01:04:46;;;;;;;14.82;5.80;;;11.60;99.90;;;;;;5050958;28;20581;-62
2023/05/20 01:07:15;;;;;;;11.70;5.63;;;11.60;99.90;;;;;;5050630;28;20057;-62
2023/05/20 01:09:40;;;;;;;10.85;5.68;;;11.50;99.90;;;;;;5066661;22;20045;-65
2023/05/20 01:12:18;;;;;;;10.15;5.30;;;11.50;99.90;;;;;;5050036;28;20041;-65
2023/05/20 01:14:49;;;;;;;10.48;6.00;;;11.50;99.90;;;;;;5053582;28;20052;-63
2023/05/20 01:17:19;;;;;;;10.07;5.45;;;11.50;99.90;;;;;;5050059;28;20071;-63
2023/05/20 01:19:47;;;;;;;10.43;5.40;;;11.50;99.90;;;;;;5058703;28;20527;-63
2023/05/20 01:22:14;;;;;;;11.60;5.10;;;11.50;99.90;;;;;;5057894;28;20037;-63
2023/05/20 01:24:44;;;;;;;13.90;6.32;;;11.50;99.90;;;;;;5054318;28;20069;-63
2023/05/20 01:27:12;;;;;;;9.88;5.63;;;11.50;99.90;;;;;;5061959;28;20120;-63
2023/05/20 01:29:38;;;;;;;12.32;5.07;;;11.50;99.90;;;;;;5061407;28;20099;-63
2023/05/20 01:32:21;;;;;;;8.68;5.20;;;11.40;99.90;;;;;;5052602;28;20064;-63
2023/05/20 01:34:49;;;;;;;10.88;5.90;;;11.40;99.90;;;;;;5051831;28;20394;-65
2023/05/20 01:37:17;;;;;;;9.45;5.05;;;11.50;99.90;;;;;;5052371;28;20463;-65
2023/05/20 01:39:45;;;;;;;11.18;5.40;;;11.40;99.90;;;;;;5054377;28;20060;-65
2023/05/20 01:42:12;;;;;;;14.30;5.43;;;11.40;99.90;;;;;;5053187;28;20045;-65
2023/05/20 01:44:38;;;;;;;11.52;5.18;;;11.40;99.90;;;;;;5052750;28;20045;-65
2023/05/20 01:47:04;;;;;;;8.18;4.47;;;11.40;99.90;;;;;;5052568;28;20051;-65
2023/05/20 01:49:30;;;;;;;11.88;4.72;;;11.40;99.90;;;;;;5047398;28;20057;-65
2023/05/20 01:51:56;;;;;;;9.93;5.13;;;11.40;99.90;;;;;;5053872;28;20527;-65
2023/05/20 01:54:22;;;;;;;10.07;4.97;;;11.40;99.90;;;;;;5052659;28;20044;-65
2023/05/20 01:56:48;;;;;;;12.50;5.40;;;11.40;99.90;;;;;;5050373;28;21961;-65
2023/05/20 01:59:14;;;;;;;10.65;5.10;;;11.50;99.90;;;;;;5052520;28;20102;-65
2023/05/20 02:01:40;;;;;;;10.20;4.70;;;11.40;99.90;;;;;;5052678;28;20549;-65
2023/05/20 02:04:05;;;;;;;9.82;4.88;;;11.40;99.90;;;;;;5060020;28;20119;-65
2023/05/20 02:06:31;;;;;;;9.32;4.72;;;11.40;99.90;;;;;;5053746;28;20401;-65
2023/05/20 02:08:56;;;;;;;8.55;5.05;;;11.40;99.90;;;;;;5052722;28;20146;-65
2023/05/20 02:11:22;;;;;;;8.55;4.95;;;11.40;99.90;;;;;;5052056;28;20037;-66
2023/05/20 02:13:49;;;;;;;11.85;5.03;;;11.50;99.90;;;;;;5047981;28;20044;-65
2023/05/20 02:16:14;;;;;;;7.32;4.82;;;11.40;99.90;;;;;;5047395;28;20037;-65
2023/05/20 02:18:41;;;;;;;10.48;5.15;;;11.40;99.90;;;;;;5053527;28;20033;-65
2023/05/20 02:21:06;;;;;;;10.77;4.57;;;11.40;99.90;;;;;;5053070;28;20233;-65
2023/05/20 02:23:33;;;;;;;8.25;4.90;;;11.50;99.90;;;;;;5058314;28;20037;-65
2023/05/20 02:25:58;;;;;;;11.35;4.78;;;11.50;99.90;;;;;;5056239;28;20041;-63
2023/05/20 02:28:24;;;;;;;8.57;4.22;;;11.50;99.90;;;;;;5052866;28;20552;-62
2023/05/20 02:30:52;;;;;;;7.57;4.07;;;11.50;99.90;;;;;;5043357;28;20041;-65
2023/05/20 02:33:18;;;;;;;7.85;4.50;;;11.50;99.90;;;;;;5055357;28;20037;-63
2023/05/20 02:35:44;;;;;;;8.90;4.28;;;11.50;99.90;;;;;;5057414;28;20029;-65
2023/05/20 02:38:11;;;;;;;10.75;4.95;;;11.50;99.90;;;;;;5052700;28;20394;-65
2023/05/20 02:40:36;;;;;;;11.00;4.45;;;11.40;99.90;;;;;;5053130;28;20075;-63
2023/05/20 02:43:02;;;;;;;8.27;4.63;;;11.40;99.90;;;;;;5053345;28;21271;-62
2023/05/20 02:45:28;;;;;;;8.13;4.60;;;11.40;99.90;;;;;;5060198;28;20037;-63
2023/05/20 02:47:54;;;;;;;8.65;4.55;;;11.40;99.90;;;;;;5051219;28;20045;-65
2023/05/20 02:50:20;;;;;;;8.07;5.28;;;11.40;99.90;;;;;;5053033;28;20062;-66
2023/05/20 02:52:46;;;;;;;10.27;4.97;;;11.40;99.90;;;;;;5052003;28;20040;-65
2023/05/20 02:55:12;;;;;;;9.45;4.50;;;11.40;99.90;;;;;;5061695;28;20036;-65
2023/05/20 02:57:38;;;;;;;7.53;4.50;;;11.40;99.90;;;;;;5046831;28;20045;-66
2023/05/20 03:00:12;;;;;;;11.65;5.18;;;11.40;99.90;;;;;;5052767;28;20032;-65
2023/05/20 03:02:38;;;;;;;9.77;4.53;;;11.40;99.90;;;;;;5053214;28;20759;-66
2023/05/20 03:05:04;;;;;;;8.65;4.70;;;11.40;99.90;;;;;;5051205;28;20036;-65
2023/05/20 03:07:30;;;;;;;10.23;4.30;;;11.40;99.90;;;;;;5066621;28;20379;-66
2023/05/20 03:09:58;;;;;;;10.07;4.85;;;11.40;99.90;;;;;;5048900;28;20930;-66
2023/05/20 03:12:25;;;;;;;6.47;4.10;;;11.30;99.90;;;;;;5051062;28;20102;-65
2023/05/20 03:14:54;;;;;;;9.38;4.72;;;11.30;99.90;;;;;;5051530;28;20048;-66
2023/05/20 03:17:20;;;;;;;9.57;4.32;;;11.30;99.90;;;;;;5052482;28;20044;-65
2023/05/20 03:19:46;;;;;;;9.02;4.80;;;11.20;99.90;;;;;;5050474;28;20037;-65
2023/05/20 03:22:12;;;;;;;7.07;3.90;;;11.20;99.90;;;;;;5050482;28;20029;-65
2023/05/20 03:24:37;;;;;;;8.90;4.57;;;11.20;99.90;;;;;;5051523;28;20037;-63
2023/05/20 03:27:03;;;;;;;7.70;4.63;;;11.20;99.90;;;;;;5052064;28;20409;-63
2023/05/20 03:29:30;;;;;;;6.53;4.10;;;11.10;99.90;;;;;;5052297;28;20040;-65
2023/05/20 03:31:55;;;;;;;9.43;4.40;;;11.10;99.90;;;;;;5046625;28;20409;-65
2023/05/20 03:34:21;;;;;;;24.55;5.88;;;11.10;99.90;;;;;;5042972;28;20043;-65
2023/05/20 03:36:47;;;;;;;9.20;4.88;;;11.10;99.90;;;;;;5060133;28;20043;-65
2023/05/20 03:39:12;;;;;;;6.57;4.20;;;11.00;99.90;;;;;;5050870;28;20030;-65
2023/05/20 03:41:38;;;;;;;7.35;4.05;;;11.10;99.90;;;;;;5051412;28;20033;-65
2023/05/20 03:44:03;;;;;;;6.85;4.35;;;11.10;99.90;;;;;;5051181;28;20107;-65
2023/05/20 03:46:31;;;;;;;9.63;4.20;;;11.10;99.90;;;;;;5050763;28;20053;-65
2023/05/20 03:48:56;;;;;;;10.70;4.13;;;11.10;99.90;;;;;;5050246;28;20040;-65
2023/05/20 03:51:22;;;;;;;6.63;4.18;;;11.10;99.90;;;;;;5048401;28;20583;-65
2023/05/20 03:53:47;;;;;;;6.75;3.88;;;11.10;99.90;;;;;;5049286;28;20078;-65
2023/05/20 03:56:13;;;;;;;5.90;4.13;;;11.10;99.90;;;;;;5048462;28;20043;-65
2023/05/20 03:58:39;;;;;;;6.60;3.92;;;11.00;99.90;;;;;;5052418;28;20390;-65
2023/05/20 04:01:04;;;;;;;9.15;3.97;;;11.10;99.90;;;;;;5041888;28;20037;-65
2023/05/20 04:03:30;;;;;;;8.93;4.32;;;11.10;99.90;;;;;;5046272;28;20067;-65
2023/05/20 04:05:55;;;;;;;5.40;3.88;;;11.00;99.90;;;;;;5050207;28;20119;-65
2023/05/20 04:08:24;;;;;;;6.72;3.75;;;11.00;99.90;;;;;;5050397;28;20032;-65
2023/05/20 04:10:54;;;;;;;7.15;4.28;;;11.00;99.90;;;;;;5046961;28;20111;-65
2023/05/20 04:13:19;;;;;;;7.65;3.95;;;11.00;99.90;;;;;;5050831;28;20037;-65
2023/05/20 04:15:46;;;;;;;8.50;4.30;;;10.90;99.90;;;;;;5048570;28;20044;-65
2023/05/20 04:18:12;;;;;;;9.77;4.20;;;10.90;99.90;;;;;;5050772;28;20064;-65
2023/05/20 04:20:40;;;;;;;5.80;4.00;;;10.90;99.90;;;;;;5043910;28;20064;-65
2023/05/20 04:23:06;;;;;;;7.53;4.03;;;10.80;99.90;;;;;;5048425;28;20040;-65
2023/05/20 04:25:32;;;;;;;8.45;3.90;;;10.90;99.90;;;;;;5048364;28;20402;-65
2023/05/20 04:27:58;;;;;;;5.28;3.58;;;10.90;99.90;;;;;;5051040;28;20044;-65
2023/05/20 04:30:24;;;;;;;10.30;4.35;;;10.90;99.90;;;;;;5049628;28;20041;-65
2023/05/20 04:32:50;;;;;;;8.95;3.88;;;10.90;99.90;;;;;;5047819;28;20042;-65
2023/05/20 04:35:16;;;;;;;13.68;4.32;;;10.90;99.90;;;;;;5047111;28;20135;-65
2023/05/20 04:37:43;;;;;;;6.53;3.80;;;11.00;99.90;;;;;;5050734;28;20033;-65
2023/05/20 04:40:11;;;;;;;7.10;3.40;;;11.00;99.90;;;;;;5059118;28;20048;-65
2023/05/20 04:42:37;;;;;;;6.55;3.45;;;11.00;99.90;;;;;;5051578;28;20045;-65
2023/05/20 04:45:04;;;;;;;6.00;3.28;;;11.00;99.90;;;;;;5047998;28;20116;-65
2023/05/20 04:47:30;;;;;;;6.70;3.20;;;11.10;99.90;;;;;;5045632;28;20041;-65
2023/05/20 04:49:56;;;;;;;6.00;3.28;;;11.10;99.90;;;;;;5049653;28;20040;-65
2023/05/20 04:52:26;;;;;;;8.20;3.58;;;11.10;99.90;;;;;;5050544;28;20037;-65
2023/05/20 04:54:52;;;;;;;4.60;3.05;;;11.20;99.90;;;;;;5049339;28;20090;-65
2023/05/20 04:57:20;;;;;;;5.05;3.38;;;11.20;99.90;;;;;;5050584;28;20041;-65
2023/05/20 04:59:46;;;;;;;7.97;3.28;;;11.30;99.90;;;;;;5046580;28;20032;-65
2023/05/20 05:02:13;;;;;;;7.63;3.00;;;11.40;99.90;;;;;;5050814;28;20043;-65
2023/05/20 05:04:38;;;;;;;5.95;2.85;;;11.50;99.90;;;;;;5049254;28;20067;-65
2023/05/20 05:07:04;;;;;;;5.30;3.03;;;11.50;99.90;;;;;;5050487;28;20120;-65
2023/05/20 05:09:30;;;;;;;6.18;2.92;;;11.60;99.90;;;;;;5046756;28;20040;-65
2023/05/20 05:11:55;;;;;;;4.53;2.40;;;11.70;99.90;;;;;;5050488;28;20036;-65
2023/05/20 05:14:22;;;;;;;5.45;2.60;;;11.70;99.90;;;;;;5050354;28;20120;-65
2023/05/20 05:16:48;;;;;;;5.10;3.65;;;11.80;99.90;;;;;;5053447;28;20037;-65
2023/05/20 05:19:14;;;;;;;6.70;2.72;;;11.80;99.90;;;;;;5050061;28;20036;-65
2023/05/20 05:21:40;;;;;;;3.65;2.78;;;11.90;99.90;;;;;;5054401;28;20051;-65
2023/05/20 05:24:05;;;;;;;5.60;2.40;;;12.00;99.90;;;;;;5053145;28;20037;-65
2023/05/20 05:26:31;;;;;;;4.10;2.88;;;12.10;99.90;;;;;;5054278;28;20048;-65
2023/05/20 05:28:57;;;;;;;5.07;2.70;;;12.10;99.90;;;;;;5053593;28;20068;-65
2023/05/20 05:31:22;;;;;;;4.90;2.53;;;12.20;99.90;;;;;;5053421;28;20539;-65
2023/05/20 05:33:48;;;;;;;4.38;2.78;;;12.20;99.90;;;;;;5053599;28;20067;-65
2023/05/20 05:36:14;;;;;;;4.32;2.72;;;12.20;99.90;;;;;;5052382;28;20033;-65
2023/05/20 05:38:40;;;;;;;6.50;2.42;;;12.30;99.90;;;;;;5053453;28;20566;-66
2023/05/20 05:41:05;;;;;;;5.95;2.67;;;12.40;99.90;;;;;;5049337;28;20111;-65
2023/05/20 05:43:31;;;;;;;4.60;2.45;;;12.40;99.90;;;;;;5048486;28;20052;-65
2023/05/20 05:45:56;;;;;;;5.15;2.60;;;12.40;99.90;;;;;;5051050;28;20454;-65
2023/05/20 05:48:22;;;;;;;6.38;2.40;;;12.50;99.90;;;;;;5051691;28;20040;-65
2023/05/20 05:50:47;;;;;;;3.80;2.33;;;12.50;99.90;;;;;;5052448;28;20064;-65
2023/05/20 05:53:13;;;;;;;4.65;2.25;;;12.60;99.90;;;;;;5044649;28;20029;-65
2023/05/20 05:55:39;;;;;;;3.45;2.15;;;12.60;99.90;;;;;;5051858;28;20471;-65
2023/05/20 05:58:04;;;;;;;4.22;2.58;;;12.70;99.90;;;;;;5050602;28;20406;-65
2023/05/20 06:00:30;;;;;;;3.20;2.17;;;12.70;99.90;;;;;;5052176;28;20033;-65
2023/05/20 06:02:55;;;;;;;2.97;2.20;;;12.80;99.90;;;;;;5051836;28;20060;-65
2023/05/20 06:05:21;;;;;;;4.80;2.38;;;12.90;99.90;;;;;;5053144;28;20040;-65
2023/05/20 06:07:46;;;;;;;12.50;2.92;;;12.90;99.90;;;;;;5052045;28;20048;-65
2023/05/20 06:10:12;;;;;;;4.25;2.35;;;13.00;99.90;;;;;;5052711;28;20532;-65
2023/05/20 06:12:38;;;;;;;4.93;2.00;;;13.10;99.90;;;;;;5052176;28;20037;-65
2023/05/20 06:15:04;;;;;;;2.78;2.17;;;13.10;99.90;;;;;;5052110;28;20041;-65
2023/05/20 06:17:29;;;;;;;6.97;2.35;;;13.20;99.90;;;;;;5053205;28;20044;-65
2023/05/20 06:19:55;;;;;;;4.03;2.30;;;13.30;99.90;;;;;;5052866;28;20037;-65
2023/05/20 06:22:20;;;;;;;4.22;2.33;;;13.40;99.90;;;;;;5052208;28;20109;-65
2023/05/20 06:24:46;;;;;;;3.20;1.95;;;13.50;99.90;;;;;;5051780;28;20055;-65
2023/05/20 06:27:11;;;;;;;3.05;2.17;;;13.50;99.90;;;;;;5050381;28;20043;-63
2023/05/20 06:29:37;;;;;;;4.18;2.50;;;13.60;99.90;;;;;;5052391;28;20049;-63
2023/05/20 06:32:03;;;;;;;4.13;2.05;;;13.60;99.90;;;;;;5050903;28;20032;-63
2023/05/20 06:34:28;;;;;;;3.15;2.20;;;13.70;99.90;;;;;;5051916;28;20049;-63
2023/05/20 06:36:54;;;;;;;4.18;2.33;;;13.80;99.90;;;;;;5053703;28;20056;-63
2023/05/20 06:39:20;;;;;;;6.20;2.50;;;13.90;99.90;;;;;;5052743;28;20112;-64
2023/05/20 06:41:46;;;;;;;3.83;2.40;;;14.10;99.90;;;;;;5052392;28;20112;-65
2023/05/20 06:44:12;;;;;;;3.50;2.35;;;14.20;99.90;;;;;;5050360;28;20585;-64
2023/05/20 06:46:37;;;;;;;5.07;2.60;;;14.30;99.90;;;;;;5049895;28;20413;-64
2023/05/20 06:49:03;;;;;;;4.53;2.40;;;14.40;99.90;;;;;;5052431;28;20037;-64
2023/05/20 06:51:29;;;;;;;4.85;2.42;;;14.50;99.90;;;;;;5052032;28;20071;-64
2023/05/20 06:53:54;;;;;;;3.53;2.50;;;14.50;99.90;;;;;;5049929;28;20041;-64
2023/05/20 06:56:20;;;;;;;4.97;2.67;;;14.70;99.90;;;;;;5052516;28;20061;-64
2023/05/20 06:58:46;;;;;;;5.13;2.22;;;14.70;99.90;;;;;;5052926;28;20033;-64
2023/05/20 07:01:11;;;;;;;5.03;2.47;;;14.80;99.90;;;;;;5052065;28;20037;-65
2023/05/20 07:03:37;;;;;;;6.82;2.42;;;14.90;99.90;;;;;;5051559;28;20079;-64
2023/05/20 07:06:02;;;;;;;4.72;2.47;;;15.00;99.90;;;;;;5051004;28;20033;-64
2023/05/20 07:08:28;;;;;;;4.65;2.70;;;15.00;99.90;;;;;;5047801;28;20041;-65
2023/05/20 07:10:57;;;;;;;5.15;3.00;;;15.10;99.90;;;;;;5042245;22;20037;-62
2023/05/20 07:13:25;;;;;;;5.65;2.67;;;15.20;99.90;;;;;;5004303;28;20042;-62
2023/05/20 07:15:51;;;;;;;3.33;2.60;;;15.30;99.90;;;;;;4993185;28;20100;-62
2023/05/20 07:18:17;;;;;;;9.38;3.08;;;15.40;99.90;;;;;;5020323;28;20528;-62
2023/05/20 07:20:43;;;;;;;2.65;2.17;;;15.40;99.90;;;;;;5015682;28;20042;-61
2023/05/20 07:23:08;;;;;;;4.47;2.95;;;15.50;99.90;;;;;;5007938;28;20399;-62
2023/05/20 07:25:34;;;;;;;4.40;2.72;;;15.50;99.90;;;;;;5009729;28;20041;-62
2023/05/20 07:28:00;;;;;;;4.13;3.00;;;15.60;99.90;;;;;;5010747;28;20066;-62
2023/05/20 07:30:26;;;;;;;4.30;2.90;;;15.60;99.90;;;;;;5011019;28;20452;-62
2023/05/20 07:32:51;;;;;;;5.82;2.75;;;15.80;99.90;;;;;;5009861;28;20064;-61
2023/05/20 07:35:17;;;;;;;5.68;2.90;;;15.90;99.90;;;;;;5008977;28;20042;-62
2023/05/20 07:37:43;;;;;;;5.57;3.08;;;16.00;99.90;;;;;;5009551;28;20399;-62
2023/05/20 07:40:08;;;;;;;5.30;3.13;;;15.90;99.90;;;;;;5011046;28;20037;-61
2023/05/20 07:42:34;;;;;;;5.22;2.83;;;16.10;99.90;;;;;;5010449;28;20040;-62
2023/05/20 07:45:00;;;;;;;5.18;2.70;;;16.10;99.90;;;;;;5003282;28;20562;-61
2023/05/20 07:47:25;;;;;;;4.25;3.17;;;16.20;99.90;;;;;;5010499;28;20041;-62
2023/05/20 07:49:51;;;;;;;4.75;3.28;;;16.10;99.90;;;;;;5012276;28;20121;-62
2023/05/20 07:52:17;;;;;;;4.00;2.55;;;16.10;99.90;;;;;;5011431;28;20042;-62
2023/05/20 07:54:42;;;;;;;3.85;3.20;;;16.10;99.90;;;;;;5006942;28;20044;-62
2023/05/20 07:57:08;;;;;;;3.72;2.75;;;16.30;99.90;;;;;;5010870;28;20037;-62
2023/05/20 07:59:33;;;;;;;4.95;3.15;;;16.50;99.90;;;;;;5010725;28;20108;-62
2023/05/20 08:01:59;;;;;;;8.50;3.60;;;16.60;99.90;;;;;;5009963;28;20115;-62
2023/05/20 08:04:25;;;;;;;5.13;3.00;;;16.70;99.90;;;;;;5011596;28;20045;-62
2023/05/20 08:06:52;;;;;;;6.82;3.10;;;16.80;99.90;;;;;;5011916;28;20052;-62
2023/05/20 08:09:18;;;;;;;4.93;3.22;;;16.80;99.90;;;;;;5012148;28;20522;-62
2023/05/20 08:11:44;;;;;;;3.55;2.78;;;17.00;99.90;;;;;;5009517;28;20046;-62
2023/05/20 08:14:10;;;;;;;5.43;3.40;;;17.10;99.90;;;;;;5010531;28;20038;-62
2023/05/20 08:16:36;;;;;;;3.00;2.63;;;17.30;99.90;;;;;;5011609;28;20160;-62
2023/05/20 08:19:02;;;;;;;4.50;2.85;;;17.30;99.90;;;;;;5012053;28;20128;-62
2023/05/20 08:21:27;;;;;;;5.35;2.70;;;17.40;99.60;;;;;;5007848;28;20078;-61
2023/05/20 08:23:53;;;;;;;3.42;2.70;;;17.50;99.30;;;;;;5010817;28;20042;-62
2023/05/20 08:26:19;;;;;;;5.25;3.08;;;17.60;98.80;;;;;;5011854;28;20040;-62
2023/05/20 08:28:45;;;;;;;3.55;2.60;;;17.70;98.00;;;;;;5011737;28;20050;-62
2023/05/20 08:31:11;;;;;;;3.15;2.83;;;17.70;98.00;;;;;;5011050;28;20049;-62
2023/05/20 08:33:36;;;;;;;4.18;2.90;;;17.80;97.50;;;;;;5011533;28;20376;-62
2023/05/20 08:36:02;;;;;;;5.15;2.90;;;17.90;96.50;;;;;;5011547;28;20038;-62
2023/05/20 08:38:27;;;;;;;4.57;2.88;;;18.00;96.20;;;;;;5011935;28;20121;-62
2023/05/20 08:40:55;;;;;;;4.65;2.63;;;18.10;96.40;;;;;;5008866;28;20049;-62
2023/05/20 08:43:22;;;;;;;4.45;2.80;;;18.20;95.60;;;;;;5010326;28;20045;-62
2023/05/20 08:45:48;;;;;;;7.57;3.50;;;18.30;95.20;;;;;;5002557;28;20514;-61
2023/05/20 08:48:16;;;;;;;3.25;2.40;;;18.50;95.10;;;;;;5010646;28;20030;-61
2023/05/20 08:50:43;;;;;;;5.38;2.70;;;18.50;93.90;;;;;;5011432;28;20096;-61
2023/05/20 08:53:08;;;;;;;8.93;2.65;;;18.50;93.00;;;;;;5008000;28;20152;-61
2023/05/20 08:55:42;;;;;;;5.90;2.60;;;18.60;92.90;;;;;;5013376;28;20542;-61
2023/05/20 08:58:08;;;;;;;4.63;2.78;;;18.60;93.30;;;;;;5010020;28;20038;-61
2023/05/20 09:00:35;;;;;;;3.05;2.70;;;18.60;91.50;;;;;;5006517;28;20495;-62
2023/05/20 09:03:00;;;;;;;3.83;2.38;;;18.60;91.20;;;;;;5011766;28;20259;-61
2023/05/20 09:05:26;;;;;;;7.85;2.55;;;18.70;91.30;;;;;;5012241;28;20088;-61
2023/05/20 09:08:29;;;;;;;5.38;2.78;;;18.60;89.90;;;;;;5004434;28;20065;-61
2023/05/20 09:10:55;;;;;;;3.53;2.45;;;18.90;91.30;;;;;;5013442;28;20030;-61
2023/05/20 09:13:23;;;;;;;5.00;2.75;;;19.10;91.40;;;;;;5014319;28;20060;-61
2023/05/20 09:15:49;;;;;;;5.20;2.80;;;19.10;90.00;;;;;;5012918;28;20108;-61
2023/05/20 09:18:14;;;;;;;7.97;2.88;;;19.10;88.60;;;;;;5010174;28;20091;-61
2023/05/20 09:20:40;;;;;;;5.65;2.53;;;19.10;86.80;;;;;;5014091;28;20034;-61
2023/05/20 09:23:08;;;;;;;4.40;2.67;;;19.10;85.70;;;;;;5010937;28;20029;-62
2023/05/20 09:25:34;;;;;;;5.20;2.38;;;19.00;84.40;;;;;;5011574;28;20034;-62
2023/05/20 09:27:59;;;;;;;6.15;2.72;;;18.90;84.30;;;;;;5014556;28;20470;-61
2023/05/20 09:30:25;;;;;;;5.90;2.90;;;18.90;85.70;;;;;;5014193;28;20073;-61
2023/05/20 09:32:55;;;;;;;4.35;2.28;;;18.90;86.40;;;;;;5014029;28;20041;-61
2023/05/20 09:35:22;;;;;;;6.60;2.60;;;18.90;85.50;;;;;;5010746;28;20077;-61
2023/05/20 09:37:52;;;;;;;4.88;2.38;;;18.90;83.00;;;;;;5011197;28;20038;-62
2023/05/20 09:40:22;;;;;;;3.40;2.38;;;19.00;82.60;;;;;;5005887;28;20034;-61
2023/05/20 09:42:55;;;;;;;3.83;2.87;;;19.00;83.00;;;;;;5014247;28;20140;-61
2023/05/20 09:45:23;;;;;;;4.95;2.30;;;19.00;83.80;;;;;;5006352;28;20084;-61
2023/05/20 09:47:53;;;;;;;5.00;2.50;;;19.00;85.50;;;;;;5012876;28;20049;-61
2023/05/20 09:50:21;;;;;;;6.10;2.53;;;19.20;84.70;;;;;;5014636;28;20033;-61
2023/05/20 09:52:48;;;;;;;6.68;2.53;;;19.40;85.10;;;;;;5013350;28;20057;-61
2023/05/20 09:55:18;;;;;;;5.57;2.55;;;19.60;81.00;;;;;;5011763;28;20116;-62
2023/05/20 09:57:44;;;;;;;5.80;2.05;;;19.60;79.90;;;;;;5008119;28;20073;-62
2023/05/20 10:00:12;;;;;;;3.95;2.20;;;19.60;80.10;;;;;;5013735;28;20045;-62
2023/05/20 10:02:42;;;;;;;4.28;2.65;;;19.60;79.80;;;;;;5007759;28;20111;-62
2023/05/20 10:05:22;;;;;;;4.28;2.63;;;19.60;79.60;;;;;;5009764;28;20033;-62
2023/05/20 10:07:56;;;;;;;5.70;2.78;;;19.70;79.50;;;;;;5012662;28;20034;-62
2023/05/20 10:10:45;;;;;;;19.20;3.60;;;19.60;78.70;;;;;;5014010;28;20065;-62
2023/05/20 10:13:41;;;;;;;5.93;2.60;;;19.60;77.80;;;;;;5013448;28;20038;-61
2023/05/20 10:16:10;;;;;;;4.70;2.33;;;19.60;77.00;;;;;;5004943;28;20038;-62
2023/05/20 10:19:07;;;;;;;6.00;2.78;;;19.70;78.50;;;;;;5009258;28;20038;-62
2023/05/20 10:21:33;;;;;;;3.95;2.40;;;19.60;76.40;;;;;;5017962;28;20095;-62
2023/05/20 10:24:06;;;;;;;2.95;1.90;;;19.50;77.00;;;;;;5027666;28;20518;-61
2023/05/20 10:26:40;;;;;;;5.90;2.10;;;19.60;75.40;;;;;;5033744;28;20056;-62
2023/05/20 10:29:18;;;;;;;4.15;2.80;;;19.50;75.10;;;;;;5029318;28;20045;-62
2023/05/20 10:31:51;;;;;;;5.18;1.90;;;19.50;76.20;;;;;;5009851;28;20052;-62
2023/05/20 10:34:19;;;;;;;3.65;1.80;;;19.70;76.20;;;;;;5012166;28;20153;-61
2023/05/20 10:36:54;;;;;;;7.05;2.20;;;19.70;75.60;;;;;;4994194;28;20395;-61
2023/05/20 10:39:32;;;;;;;3.65;2.00;;;19.90;75.00;;;;;;4996699;28;20042;-62
2023/05/20 10:42:08;;;;;;;3.72;2.15;;;20.20;73.00;;;;;;5012858;28;20049;-61
2023/05/20 10:44:48;;;;;;;8.82;2.10;;;20.20;74.20;;;;;;5013451;28;20092;-62
2023/05/20 10:47:13;;;;;;;5.40;2.00;;;20.30;72.70;;;;;;5013565;28;20045;-61
2023/05/20 10:49:46;;;;;;;3.15;1.70;;;20.50;72.90;;;;;;5009485;28;20063;-61
2023/05/20 10:52:13;;;;;;;5.25;1.80;;;20.60;72.40;;;;;;5011823;28;20034;-62
2023/05/20 10:54:44;;;;;;;3.28;2.08;;;20.30;69.60;;;;;;5011338;28;20042;-62
2023/05/20 10:57:10;;;;;;;;;;;20.00;68.70;;;;;;5013405;28;20045;-62
2023/05/20 10:59:36;;;;;;;4.63;2.15;;;19.80;67.60;;;;;;5010284;28;20051;-61
2023/05/20 11:02:02;;;;;;;5.75;2.25;;;19.70;70.40;;;;;;5012967;28;20124;-61
2023/05/20 11:04:29;;;;;;;4.93;2.20;;;19.60;71.00;;;;;;5012654;28;20069;-61
2023/05/20 11:06:55;;;;;;;3.80;2.17;;;19.60;71.30;;;;;;5010706;28;20034;-62
2023/05/20 11:09:22;;;;;;;5.38;1.80;;;19.70;70.80;;;;;;5009610;28;20119;-62
2023/05/20 11:11:48;;;;;;;3.30;1.98;;;19.80;71.60;;;;;;5008238;28;20045;-62
2023/05/20 11:14:15;;;;;;;4.70;2.15;;;20.00;70.60;;;;;;5005486;28;20061;-61
2023/05/20 11:16:41;;;;;;;2.90;1.83;;;19.80;69.00;;;;;;5008811;28;20029;-61
2023/05/20 11:19:16;;;;;;;4.20;1.83;;;19.60;68.90;;;;;;5012540;28;20041;-62
2023/05/20 11:21:43;;;;;;;4.50;2.22;;;19.70;71.30;;;;;;5009843;28;20049;-61
2023/05/20 11:24:08;;;;;;;4.15;1.83;;;19.80;70.20;;;;;;5012287;28;20064;-62
2023/05/20 11:26:35;;;;;;;2.50;2.08;;;20.00;70.10;;;;;;5010757;28;20490;-61
2023/05/20 11:29:01;;;;;;;5.25;2.20;;;20.10;69.30;;;;;;5011080;28;20446;-61
2023/05/20 11:31:26;;;;;;;4.53;1.95;;;20.10;68.60;;;;;;5011126;28;20038;-61
2023/05/20 11:33:52;;;;;;;5.65;2.38;;;20.10;69.90;;;;;;5010269;28;20538;-62
2023/05/20 11:36:18;;;;;;;3.78;2.22;;;20.00;69.50;;;;;;5009241;28;20466;-61
2023/05/20 11:38:45;;;;;;;4.15;2.30;;;20.20;69.10;;;;;;5009974;28;20391;-61
2023/05/20 11:41:12;;;;;;;5.20;2.20;;;20.50;70.40;;;;;;5009991;28;20041;-61
2023/05/20 11:43:37;;;;;;;3.95;2.10;;;20.70;69.10;;;;;;5002849;28;20096;-61
2023/05/20 11:46:04;;;;;;;2.53;1.80;;;20.90;68.80;;;;;;5009593;28;20506;-61
2023/05/20 11:48:29;;;;;;;4.05;2.60;;;21.00;68.00;;;;;;5008786;28;20083;-62
2023/05/20 11:50:56;;;;;;;4.13;2.15;;;20.90;66.80;;;;;;5009795;28;20533;-62
2023/05/20 11:53:23;;;;;;;5.70;2.50;;;20.60;66.80;;;;;;5000999;28;20046;-61
2023/05/20 11:55:57;;;;;;;4.20;2.17;;;20.40;67.20;;;;;;5007659;28;20042;-61
2023/05/20 11:58:28;;;;;;;4.85;1.88;;;20.20;68.30;;;;;;5008192;28;20082;-62
2023/05/20 12:00:54;;;;;;;3.72;2.10;;;20.30;69.40;;;;;;5010056;28;20037;-61
2023/05/20 12:03:20;;;;;;;3.85;1.90;;;20.40;68.10;;;;;;5008665;28;20116;-61
2023/05/20 12:05:47;;;;;;;4.57;2.25;;;20.50;67.50;;;;;;5008244;28;20069;-62
2023/05/20 12:08:13;;;;;;;4.15;2.10;;;20.60;68.00;;;;;;5005197;28;20073;-61
2023/05/20 12:10:38;;;;;;;2.42;1.83;;;20.70;68.60;;;;;;5009428;28;20116;-61
2023/05/20 12:13:07;;;;;;;5.57;2.03;;;20.80;67.60;;;;;;5006412;28;20125;-61
2023/05/20 12:15:35;;;;;;;4.32;2.10;;;20.90;67.00;;;;;;5008688;28;20046;-61
2023/05/20 12:18:01;;;;;;;5.95;2.38;;;21.10;67.90;;;;;;5008853;28;20038;-61
2023/05/20 12:20:26;;;;;;;4.38;1.98;;;21.30;66.40;;;;;;5008542;28;20050;-61
2023/05/20 12:22:52;;;;;;;4.35;2.30;;;21.40;66.00;;;;;;5011518;28;20038;-62
2023/05/20 12:25:19;;;;;;;4.10;2.22;;;21.60;66.60;;;;;;5006715;28;20046;-62
2023/05/20 12:27:49;;;;;;;3.80;2.20;;;21.40;64.30;;;;;;5013917;28;20033;-62
2023/05/20 12:30:16;;;;;;;5.05;2.10;;;21.20;63.60;;;;;;5002583;28;20038;-62
2023/05/20 12:32:42;;;;;;;3.28;1.70;;;20.90;64.40;;;;;;4999867;28;20536;-62
2023/05/20 12:35:09;;;;;;;3.80;2.00;;;20.70;64.00;;;;;;5004158;28;20034;-61
2023/05/20 12:37:35;;;;;;;3.97;2.20;;;20.40;64.00;;;;;;5009624;28;20037;-61
2023/05/20 12:40:02;;;;;;;5.55;2.33;;;20.40;66.20;;;;;;5010900;28;20042;-61
2023/05/20 12:42:28;;;;;;;4.28;2.15;;;20.40;65.60;;;;;;5011692;28;20050;-62
2023/05/20 12:44:54;;;;;;;7.60;2.50;;;20.40;66.30;;;;;;5011429;28;20505;-62